Time;durP1;ratioP1;P1;durP2;ratioP2;P2;SDS_P1;SDS_P2;PMS_P1;PMS_P2;Temp;Humidity;BMP_temperature;BMP_pressure;BME280_temperature;BME280_humidity;BME280_pressure;Samples;Min_cycle;Max_cycle;Signal;HPM_P1;HPM_P2
2023/05/07 00:01:54;;;;;;;11.50;10.32;;;22.90;80.00;;;;;;6232514;28;88350;-79
2023/05/07 00:04:56;;;;;;;10.60;9.60;;;22.90;80.00;;;;;;6224928;28;89234;-80
2023/05/07 00:07:58;;;;;;;10.82;9.82;;;22.90;80.00;;;;;;6228439;28;89070;-79
2023/05/07 00:11:00;;;;;;;10.88;9.77;;;22.90;80.00;;;;;;6226379;28;91001;-80
2023/05/07 00:14:02;;;;;;;10.60;9.60;;;22.90;80.00;;;;;;6220707;28;89096;-79
2023/05/07 00:17:05;;;;;;;10.82;9.82;;;22.90;80.00;;;;;;6224016;28;89380;-79
2023/05/07 00:20:08;;;;;;;11.95;10.85;;;22.90;80.00;;;;;;6229888;28;90195;-80
2023/05/07 00:23:11;;;;;;;11.88;10.77;;;22.90;80.10;;;;;;6212530;28;89052;-77
2023/05/07 00:26:13;;;;;;;11.38;10.32;;;22.90;80.20;;;;;;6220477;28;89416;-81
2023/05/07 00:29:15;;;;;;;10.88;9.88;;;22.90;80.10;;;;;;6217360;28;89008;-79
2023/05/07 00:32:18;;;;;;;11.35;10.35;;;22.80;80.00;;;;;;6217890;28;88265;-78
2023/05/07 00:35:20;;;;;;;11.27;10.25;;;22.90;80.00;;;;;;6230445;28;89317;-79
2023/05/07 00:38:22;;;;;;;11.85;10.75;;;22.90;80.00;;;;;;6216632;28;89124;-79
2023/05/07 00:41:24;;;;;;;12.05;10.95;;;22.80;79.90;;;;;;6218231;28;91015;-79
2023/05/07 00:44:28;;;;;;;11.98;10.82;;;22.90;80.00;;;;;;6201487;28;89078;-79
2023/05/07 00:47:32;;;;;;;10.57;9.68;;;22.80;79.90;;;;;;6219964;28;89125;-79
2023/05/07 00:50:34;;;;;;;11.57;10.57;;;22.90;80.00;;;;;;6218870;28;87876;-78
2023/05/07 00:53:36;;;;;;;11.98;10.88;;;22.80;79.80;;;;;;6214014;28;89029;-79
2023/05/07 00:56:39;;;;;;;12.10;11.00;;;22.90;80.80;;;;;;6216112;28;89052;-79
2023/05/07 00:59:41;;;;;;;12.55;11.43;;;22.80;80.00;;;;;;6245030;27;88875;-78
2023/05/07 01:02:44;;;;;;;11.80;10.70;;;22.80;80.10;;;;;;6228720;27;88232;-79
2023/05/07 01:05:48;;;;;;;11.40;10.40;;;22.90;80.10;;;;;;6231022;28;89181;-79
2023/05/07 01:08:52;;;;;;;12.65;11.45;;;22.80;80.00;;;;;;6231448;27;89004;-77
2023/05/07 01:11:57;;;;;;;12.18;11.07;;;22.80;79.90;;;;;;6220251;28;88814;-79
2023/05/07 01:14:59;;;;;;;12.45;11.25;;;22.80;79.90;;;;;;6219889;27;89145;-78
2023/05/07 01:18:03;;;;;;;11.77;10.77;;;22.90;80.00;;;;;;6217304;28;89026;-78
2023/05/07 01:21:06;;;;;;;12.55;11.45;;;22.80;79.80;;;;;;6225173;28;89090;-79
2023/05/07 01:24:10;;;;;;;12.68;11.48;;;22.80;79.90;;;;;;6235375;28;89065;-78
2023/05/07 01:27:12;;;;;;;12.07;10.98;;;22.80;79.90;;;;;;6226826;28;89319;-78
2023/05/07 01:30:14;;;;;;;12.70;11.50;;;22.80;79.90;;;;;;6205398;28;89079;-78
2023/05/07 01:33:22;;;;;;;11.77;10.68;;;22.80;79.90;;;;;;6206566;28;88312;-80
2023/05/07 01:36:27;;;;;;;12.63;11.43;;;22.80;80.00;;;;;;6236301;28;89021;-76
2023/05/07 01:39:31;;;;;;;12.07;10.95;;;22.80;80.10;;;;;;6217943;28;89073;-78
2023/05/07 01:42:33;;;;;;;12.07;10.98;;;22.80;80.00;;;;;;6229213;28;89948;-78
2023/05/07 01:45:36;;;;;;;12.95;11.75;;;22.80;79.90;;;;;;6224668;28;89051;-80
2023/05/07 01:48:39;;;;;;;11.70;10.60;;;22.80;79.90;;;;;;6215239;28;89037;-80
2023/05/07 01:51:41;;;;;;;11.95;10.85;;;22.80;79.90;;;;;;6228437;28;89308;-79
2023/05/07 01:54:45;;;;;;;11.65;10.55;;;22.80;79.90;;;;;;6228260;28;89378;-79
2023/05/07 01:57:46;;;;;;;12.23;11.13;;;22.80;79.90;;;;;;6218699;28;89246;-79
2023/05/07 02:00:48;;;;;;;12.00;10.90;;;22.80;79.90;;;;;;6209759;28;89085;-79
2023/05/07 02:03:51;;;;;;;12.13;11.02;;;22.80;79.90;;;;;;6204262;28;88370;-78
2023/05/07 02:06:53;;;;;;;11.57;10.57;;;22.80;79.90;;;;;;6209102;28;88273;-80
2023/05/07 02:09:56;;;;;;;12.05;11.05;;;22.80;79.90;;;;;;6223720;28;89018;-80
2023/05/07 02:12:59;;;;;;;12.95;11.75;;;22.80;80.00;;;;;;6232548;28;90329;-79
2023/05/07 02:16:01;;;;;;;11.90;10.80;;;22.80;80.10;;;;;;6227132;28;89253;-80
2023/05/07 02:19:03;;;;;;;11.70;10.60;;;22.80;80.00;;;;;;6217549;28;89045;-80
2023/05/07 02:22:05;;;;;;;11.93;10.82;;;22.80;79.90;;;;;;6223813;28;89343;-80
2023/05/07 02:25:09;;;;;;;11.25;10.25;;;22.80;79.80;;;;;;6224835;28;89065;-81
2023/05/07 02:28:11;;;;;;;11.40;10.30;;;22.80;79.80;;;;;;6229920;28;89082;-81
2023/05/07 02:31:13;;;;;;;11.00;10.00;;;22.80;79.80;;;;;;6214471;28;89369;-80
2023/05/07 02:34:15;;;;;;;11.05;10.05;;;22.80;79.90;;;;;;6233823;27;88622;-81
2023/05/07 02:37:17;;;;;;;11.70;10.63;;;22.80;79.80;;;;;;6233685;27;89017;-81
2023/05/07 02:40:20;;;;;;;11.25;10.25;;;22.80;79.80;;;;;;6217090;28;89523;-79
2023/05/07 02:43:22;;;;;;;11.77;10.68;;;22.80;79.80;;;;;;6232013;28;89973;-79
2023/05/07 02:46:24;;;;;;;12.30;11.18;;;22.80;79.80;;;;;;6226705;27;89062;-81
2023/05/07 02:49:26;;;;;;;11.63;10.57;;;22.80;80.00;;;;;;6221183;28;87994;-79
2023/05/07 02:52:28;;;;;;;11.13;10.13;;;22.80;80.10;;;;;;6223141;28;89097;-79
2023/05/07 02:55:32;;;;;;;11.18;10.18;;;22.80;80.00;;;;;;6227194;28;89082;-79
2023/05/07 02:58:34;;;;;;;10.80;9.82;;;22.80;79.90;;;;;;6234771;28;89065;-80
2023/05/07 03:01:36;;;;;;;11.23;10.23;;;22.80;79.80;;;;;;6214470;28;89091;-80
2023/05/07 03:04:38;;;;;;;10.30;9.40;;;22.80;79.80;;;;;;6233736;28;88314;-81
2023/05/07 03:07:40;;;;;;;10.77;9.77;;;22.80;79.80;;;;;;6208067;28;89165;-80
2023/05/07 03:10:44;;;;;;;11.07;10.07;;;22.80;79.80;;;;;;6233134;28;89162;-78
2023/05/07 03:13:46;;;;;;;10.80;9.80;;;22.80;79.90;;;;;;6229769;28;89233;-79
2023/05/07 03:16:48;;;;;;;11.05;10.05;;;22.80;79.90;;;;;;6232554;28;89020;-79
2023/05/07 03:19:50;;;;;;;10.57;9.55;;;22.80;79.90;;;;;;6246049;28;89090;-81
2023/05/07 03:22:52;;;;;;;10.57;9.68;;;22.80;79.90;;;;;;6229497;27;89057;-80
2023/05/07 03:25:55;;;;;;;10.52;9.57;;;22.80;80.10;;;;;;6229653;27;89016;-80
2023/05/07 03:28:57;;;;;;;10.25;9.35;;;22.80;80.10;;;;;;6220970;28;89101;-79
2023/05/07 03:31:59;;;;;;;10.90;9.90;;;22.80;80.00;;;;;;6236210;27;88028;-79
2023/05/07 03:35:02;;;;;;;10.18;9.20;;;22.80;79.90;;;;;;6223092;28;88597;-80
2023/05/07 03:38:04;;;;;;;10.07;9.18;;;22.80;79.90;;;;;;6211852;27;89386;-76
2023/05/07 03:41:08;;;;;;;9.68;8.88;;;22.80;79.90;;;;;;6243757;28;90301;-78
2023/05/07 03:44:09;;;;;;;9.82;8.93;;;22.80;79.90;;;;;;6218108;28;88936;-79
2023/05/07 03:47:13;;;;;;;9.68;8.77;;;22.80;80.00;;;;;;6219850;28;89386;-79
2023/05/07 03:50:15;;;;;;;9.73;8.88;;;22.80;79.90;;;;;;6214202;28;89086;-79
2023/05/07 03:53:17;;;;;;;9.77;8.88;;;22.80;80.00;;;;;;6220207;27;89388;-78
2023/05/07 03:56:20;;;;;;;9.80;8.90;;;22.80;80.00;;;;;;6225370;27;89065;-78
2023/05/07 03:59:23;;;;;;;9.27;8.48;;;22.80;80.00;;;;;;6234688;28;87003;-78
2023/05/07 04:02:25;;;;;;;9.20;8.40;;;22.80;80.10;;;;;;6233405;27;87945;-78
2023/05/07 04:05:27;;;;;;;9.45;8.65;;;22.80;80.00;;;;;;6226597;28;88783;-80
2023/05/07 04:08:29;;;;;;;8.85;8.07;;;22.80;80.00;;;;;;6255969;27;88306;-78
2023/05/07 04:11:32;;;;;;;9.23;8.38;;;22.80;79.90;;;;;;6229729;27;89850;-80
2023/05/07 04:14:34;;;;;;;8.85;8.05;;;22.80;79.90;;;;;;6216165;28;90073;-78
2023/05/07 04:17:36;;;;;;;8.93;8.15;;;22.80;79.90;;;;;;6223854;28;89056;-79
2023/05/07 04:20:38;;;;;;;9.20;8.40;;;22.80;80.80;;;;;;6232740;28;88512;-80
2023/05/07 04:23:40;;;;;;;8.88;8.07;;;22.80;79.90;;;;;;6232253;28;89163;-78
2023/05/07 04:26:43;;;;;;;8.35;7.63;;;22.80;79.90;;;;;;6231442;27;88966;-79
2023/05/07 04:29:47;;;;;;;9.20;8.30;;;22.80;79.90;;;;;;6248846;28;88943;-79
2023/05/07 04:32:49;;;;;;;8.60;7.80;;;22.80;79.90;;;;;;6242637;28;89025;-78
2023/05/07 04:35:51;;;;;;;8.32;7.63;;;22.80;80.00;;;;;;6226380;28;87126;-79
2023/05/07 04:38:52;;;;;;;8.75;7.95;;;22.80;80.10;;;;;;6214171;28;89077;-78
2023/05/07 04:41:56;;;;;;;8.75;7.95;;;22.80;80.10;;;;;;6210301;28;87847;-80
2023/05/07 04:44:58;;;;;;;7.93;7.22;;;22.80;80.00;;;;;;6218580;28;90312;-80
2023/05/07 04:48:00;;;;;;;8.05;7.35;;;22.80;79.90;;;;;;6230135;28;89368;-79
2023/05/07 04:51:01;;;;;;;7.95;7.25;;;22.80;80.00;;;;;;6231484;28;89081;-80
2023/05/07 04:54:03;;;;;;;8.05;7.35;;;22.80;79.90;;;;;;6214046;28;88949;-80
2023/05/07 04:57:07;;;;;;;8.00;7.20;;;22.80;79.90;;;;;;6220839;28;89051;-80
2023/05/07 05:00:09;;;;;;;7.82;7.15;;;22.80;79.90;;;;;;6230750;28;89090;-78
2023/05/07 05:03:11;;;;;;;8.30;7.53;;;22.70;79.80;;;;;;6231624;27;89089;-78
2023/05/07 05:06:13;;;;;;;8.05;7.28;;;22.80;79.90;;;;;;6216110;28;88535;-78
2023/05/07 05:09:15;;;;;;;7.88;7.18;;;22.70;79.80;;;;;;6206926;28;89100;-78
2023/05/07 05:12:19;;;;;;;8.18;7.47;;;22.80;80.00;;;;;;6225188;28;89101;-79
2023/05/07 05:15:21;;;;;;;7.50;6.80;;;22.80;80.10;;;;;;6218892;28;90092;-78
2023/05/07 05:18:23;;;;;;;7.30;6.63;;;22.70;80.00;;;;;;6225182;27;89273;-77
2023/05/07 05:21:25;;;;;;;7.18;6.57;;;22.70;79.90;;;;;;6241759;28;89112;-79
2023/05/07 05:24:27;;;;;;;7.55;6.95;;;22.80;79.90;;;;;;6228556;28;88102;-78
2023/05/07 05:27:30;;;;;;;7.35;6.70;;;22.80;79.90;;;;;;6220078;28;89095;-78
2023/05/07 05:30:32;;;;;;;7.50;6.80;;;22.80;79.80;;;;;;6229839;28;89106;-76
2023/05/07 05:33:34;;;;;;;7.60;6.90;;;22.80;79.90;;;;;;6243055;27;89014;-78
2023/05/07 05:36:36;;;;;;;8.00;7.20;;;22.80;79.90;;;;;;6211262;28;87596;-78
2023/05/07 05:39:38;;;;;;;6.93;6.30;;;22.80;79.90;;;;;;6231157;28;89074;-78
2023/05/07 05:42:41;;;;;;;6.90;6.30;;;22.80;79.80;;;;;;6219796;27;89065;-77
2023/05/07 05:45:43;;;;;;;6.68;6.15;;;22.80;79.90;;;;;;6222101;27;89970;-78
2023/05/07 05:48:45;;;;;;;7.05;6.45;;;22.80;79.80;;;;;;6231621;27;89392;-79
2023/05/07 05:51:47;;;;;;;7.15;6.55;;;22.80;79.80;;;;;;6238864;27;89092;-78
2023/05/07 05:54:50;;;;;;;6.90;6.30;;;22.90;79.90;;;;;;6235099;28;89042;-78
2023/05/07 05:57:53;;;;;;;7.00;6.40;;;22.80;79.90;;;;;;6223540;28;88856;-77
2023/05/07 06:00:56;;;;;;;6.88;6.28;;;22.80;79.90;;;;;;6234189;28;89134;-77
2023/05/07 06:03:58;;;;;;;6.82;6.22;;;22.80;80.00;;;;;;6224363;28;89109;-80
2023/05/07 06:07:00;;;;;;;6.50;5.90;;;22.80;79.90;;;;;;6238535;28;89115;-79
2023/05/07 06:10:02;;;;;;;6.82;6.22;;;22.80;79.90;;;;;;6245738;27;89129;-79
2023/05/07 06:13:05;;;;;;;6.72;6.15;;;22.80;79.90;;;;;;6244359;28;89076;-79
2023/05/07 06:16:08;;;;;;;6.63;6.13;;;22.80;79.90;;;;;;6213495;27;90352;-78
2023/05/07 06:19:09;;;;;;;6.25;5.75;;;22.80;79.90;;;;;;6224810;28;89108;-79
2023/05/07 06:22:11;;;;;;;6.93;6.32;;;22.80;79.90;;;;;;6244935;28;89399;-80
2023/05/07 06:25:13;;;;;;;6.18;5.68;;;22.80;79.90;;;;;;6246430;27;89063;-78
2023/05/07 06:28:17;;;;;;;6.63;6.03;;;22.90;80.00;;;;;;6241974;27;89207;-78
2023/05/07 06:31:21;;;;;;;6.65;6.05;;;22.80;80.00;;;;;;6230024;28;88933;-77
2023/05/07 06:34:23;;;;;;;6.68;6.07;;;22.90;80.00;;;;;;6235766;28;89281;-80
2023/05/07 06:37:25;;;;;;;6.60;6.05;;;22.80;79.90;;;;;;6224898;28;88308;-78
2023/05/07 06:40:27;;;;;;;6.45;5.95;;;22.90;80.00;;;;;;6225911;27;89031;-79
2023/05/07 06:43:30;;;;;;;6.20;5.70;;;22.80;80.00;;;;;;6230639;28;89123;-79
2023/05/07 06:46:32;;;;;;;6.20;5.70;;;22.90;80.00;;;;;;6215242;28;90074;-78
2023/05/07 06:49:34;;;;;;;6.10;5.60;;;22.90;80.30;;;;;;6236029;27;89161;-79
2023/05/07 06:52:36;;;;;;;6.13;5.63;;;22.90;80.20;;;;;;6239549;28;89278;-77
2023/05/07 06:55:38;;;;;;;6.50;5.90;;;22.90;80.10;;;;;;6234449;28;89071;-78
2023/05/07 06:58:42;;;;;;;5.97;5.47;;;22.90;80.20;;;;;;6244076;27;88235;-78
2023/05/07 07:01:44;;;;;;;5.78;5.28;;;22.90;80.20;;;;;;6252338;27;89099;-78
2023/05/07 07:04:46;;;;;;;5.85;5.35;;;22.90;80.20;;;;;;6217505;28;89020;-78
2023/05/07 07:07:52;;;;;;;6.80;6.10;;;22.90;80.10;;;;;;6234887;28;88311;-78
2023/05/07 07:10:54;;;;;;;6.18;5.68;;;22.90;80.30;;;;;;6222653;28;89108;-78
2023/05/07 07:13:58;;;;;;;6.43;5.85;;;22.90;80.40;;;;;;6245465;28;89145;-77
2023/05/07 07:17:00;;;;;;;5.88;5.38;;;22.90;80.60;;;;;;6242908;27;90415;-77
2023/05/07 07:20:02;;;;;;;5.53;5.07;;;22.90;80.60;;;;;;6208203;27;89012;-77
2023/05/07 07:23:04;;;;;;;6.07;5.57;;;22.90;80.70;;;;;;6231450;28;89166;-78
2023/05/07 07:26:06;;;;;;;5.90;5.40;;;22.90;80.80;;;;;;6215352;28;89049;-79
2023/05/07 07:29:10;;;;;;;5.80;5.30;;;22.90;80.80;;;;;;6208229;28;88779;-78
2023/05/07 07:32:12;;;;;;;5.38;4.95;;;22.90;80.60;;;;;;6239308;28;89147;-78
2023/05/07 07:35:14;;;;;;;5.43;5.03;;;22.90;80.60;;;;;;6222950;28;89021;-79
2023/05/07 07:38:16;;;;;;;5.68;5.22;;;22.90;80.70;;;;;;6228516;27;87934;-78
2023/05/07 07:41:18;;;;;;;5.85;5.35;;;22.90;80.80;;;;;;6243329;27;89017;-78
2023/05/07 07:44:21;;;;;;;5.70;5.20;;;22.90;80.90;;;;;;6219831;28;89248;-77
2023/05/07 07:47:23;;;;;;;5.38;4.88;;;22.90;81.00;;;;;;6218497;28;91270;-79
2023/05/07 07:50:25;;;;;;;5.80;5.30;;;22.90;81.00;;;;;;6218922;28;87955;-79
2023/05/07 07:53:27;;;;;;;5.80;5.30;;;22.90;81.00;;;;;;6212454;28;89292;-78
2023/05/07 07:56:29;;;;;;;5.97;5.47;;;23.00;81.10;;;;;;6213495;28;89217;-79
2023/05/07 07:59:33;;;;;;;5.53;5.05;;;23.00;81.10;;;;;;6224651;28;89022;-77
2023/05/07 08:02:35;;;;;;;5.10;4.70;;;22.90;81.00;;;;;;6239700;27;89096;-79
2023/05/07 08:05:38;;;;;;;5.53;5.13;;;22.90;81.10;;;;;;6221369;28;89080;-79
2023/05/07 08:08:40;;;;;;;5.10;4.70;;;22.90;81.00;;;;;;6227773;28;88363;-77
2023/05/07 08:11:42;;;;;;;5.32;4.93;;;23.00;81.00;;;;;;6223677;28;88915;-79
2023/05/07 08:14:45;;;;;;;5.45;4.95;;;23.00;81.10;;;;;;6230399;28;89117;-78
2023/05/07 08:17:47;;;;;;;5.65;5.15;;;23.00;81.20;;;;;;6247537;27;90020;-79
2023/05/07 08:20:49;;;;;;;5.60;5.10;;;23.00;81.30;;;;;;6229687;28;87948;-80
2023/05/07 08:23:51;;;;;;;5.63;5.13;;;23.00;81.30;;;;;;6230093;28;89058;-78
2023/05/07 08:26:53;;;;;;;5.00;4.60;;;23.00;81.40;;;;;;6218979;28;88890;-80
2023/05/07 08:29:56;;;;;;;4.85;4.45;;;22.90;81.40;;;;;;6231641;28;89111;-78
2023/05/07 08:32:58;;;;;;;4.80;4.40;;;23.00;81.50;;;;;;6228196;28;89263;-80
2023/05/07 08:36:00;;;;;;;4.78;4.38;;;23.00;81.50;;;;;;6237254;28;89076;-80
2023/05/07 08:39:03;;;;;;;5.03;4.53;;;23.00;81.50;;;;;;6249835;27;88353;-78
2023/05/07 08:42:05;;;;;;;4.72;4.32;;;23.00;82.40;;;;;;6226879;28;89175;-79
2023/05/07 08:45:11;;;;;;;5.32;4.82;;;23.00;81.50;;;;;;6206814;28;89364;-79
2023/05/07 08:48:16;;;;;;;5.47;4.97;;;23.00;81.50;;;;;;6206307;28;90365;-76
2023/05/07 08:51:21;;;;;;;5.18;4.68;;;23.00;81.50;;;;;;6232578;28;89047;-79
2023/05/07 08:54:24;;;;;;;4.82;4.43;;;23.00;81.50;;;;;;6231628;28;89190;-78
2023/05/07 08:57:26;;;;;;;5.00;4.50;;;23.00;81.60;;;;;;6222350;28;89092;-78
2023/05/07 09:00:29;;;;;;;5.10;4.70;;;23.00;81.60;;;;;;6226751;28;89046;-78
2023/05/07 09:03:32;;;;;;;4.75;4.35;;;22.90;81.60;;;;;;6219123;28;89319;-79
2023/05/07 09:06:34;;;;;;;4.97;4.57;;;23.00;81.70;;;;;;6207458;28;87998;-78
2023/05/07 09:09:36;;;;;;;4.80;4.40;;;23.00;81.80;;;;;;6231537;28;88327;-79
2023/05/07 09:12:39;;;;;;;4.82;4.43;;;22.90;81.70;;;;;;6227247;28;89046;-79
2023/05/07 09:15:42;;;;;;;4.90;4.50;;;23.00;81.80;;;;;;6231611;28;89221;-79
2023/05/07 09:18:44;;;;;;;5.03;4.57;;;23.00;81.80;;;;;;6226017;28;89410;-79
2023/05/07 09:21:46;;;;;;;4.75;4.35;;;23.00;81.80;;;;;;6234331;28;89334;-79
2023/05/07 09:24:49;;;;;;;4.97;4.57;;;23.00;81.80;;;;;;6225562;28;87913;-78
2023/05/07 09:27:52;;;;;;;4.93;4.53;;;23.00;81.70;;;;;;6230608;28;89157;-79
2023/05/07 09:30:56;;;;;;;4.93;4.53;;;23.00;81.80;;;;;;6217075;28;89099;-78
2023/05/07 09:33:58;;;;;;;4.78;4.30;;;23.00;81.80;;;;;;6241876;28;89048;-78
2023/05/07 09:37:02;;;;;;;4.85;4.45;;;23.00;81.80;;;;;;6235695;28;88953;-79
2023/05/07 09:40:06;;;;;;;4.97;4.40;;;23.00;81.80;;;;;;6230601;28;88332;-79
2023/05/07 09:43:12;;;;;;;4.97;4.57;;;23.00;81.80;;;;;;6247337;28;89071;-79
2023/05/07 09:46:16;;;;;;;4.50;4.10;;;23.00;81.90;;;;;;6215965;28;88693;-79
2023/05/07 09:49:22;;;;;;;4.60;4.20;;;23.00;82.00;;;;;;6209679;28;90024;-80
2023/05/07 09:52:28;;;;;;;4.80;4.40;;;23.00;81.90;;;;;;6228773;28;89020;-79
2023/05/07 09:55:30;;;;;;;5.15;4.65;;;23.00;81.80;;;;;;6238026;28;88833;-79
2023/05/07 09:58:34;;;;;;;4.78;4.38;;;23.00;81.80;;;;;;6236497;28;89397;-79
2023/05/07 10:01:39;;;;;;;4.72;4.32;;;23.00;81.80;;;;;;6221848;27;88995;-80
2023/05/07 10:04:41;;;;;;;4.60;4.20;;;23.00;81.80;;;;;;6237437;28;89233;-79
2023/05/07 10:07:44;;;;;;;4.93;4.53;;;23.00;81.90;;;;;;6246479;28;89063;-78
2023/05/07 10:10:47;;;;;;;4.65;4.25;;;23.00;81.90;;;;;;6247281;27;88557;-79
2023/05/07 10:13:49;;;;;;;4.57;4.18;;;23.00;82.00;;;;;;6239096;28;89147;-78
2023/05/07 10:16:54;;;;;;;4.45;4.13;;;23.00;82.00;;;;;;6236800;28;89416;-78
2023/05/07 10:19:56;;;;;;;4.55;4.15;;;23.00;82.00;;;;;;6239562;27;90135;-80
2023/05/07 10:22:59;;;;;;;4.80;4.38;;;23.00;82.00;;;;;;6225453;28;89080;-78
2023/05/07 10:26:04;;;;;;;4.40;4.00;;;23.00;82.00;;;;;;6218827;28;89270;-80
2023/05/07 10:29:13;;;;;;;4.35;3.95;;;23.00;82.00;;;;;;6231840;28;89124;-78
2023/05/07 10:32:31;;;;;;;4.20;3.90;;;23.00;81.90;;;;;;6230167;28;88992;-79
2023/05/07 10:35:38;;;;;;;4.38;3.97;;;23.00;81.80;;;;;;6220960;28;89431;-78
2023/05/07 10:38:41;;;;;;;4.80;4.40;;;23.00;81.80;;;;;;6222639;27;89025;-77
2023/05/07 10:41:43;;;;;;;4.35;3.95;;;23.00;81.80;;;;;;6238341;27;88609;-78
2023/05/07 10:44:45;;;;;;;4.72;4.32;;;23.00;81.90;;;;;;6251473;27;89090;-79
2023/05/07 10:48:11;;;;;;;4.53;4.13;;;23.00;81.90;;;;;;6211469;28;89316;-79
2023/05/07 10:51:21;;;;;;;4.40;4.00;;;23.00;82.00;;;;;;6242177;27;90076;-80
2023/05/07 10:54:26;;;;;;;5.53;4.97;;;23.00;82.00;;;;;;6220343;28;87969;-79
2023/05/07 10:57:36;;;;;;;4.47;4.07;;;23.10;82.20;;;;;;6222401;28;89029;-80
2023/05/07 11:00:44;;;;;;;4.97;4.47;;;23.00;82.00;;;;;;6212440;28;89066;-79
2023/05/07 11:04:15;;;;;;;4.30;3.90;;;23.00;82.00;;;;;;6221427;28;89108;-80
2023/05/07 11:07:28;;;;;;;4.40;4.10;;;23.00;81.80;;;;;;6213985;28;89155;-78
2023/05/07 11:10:53;;;;;;;4.35;3.95;;;23.10;82.00;;;;;;6239506;28;88669;-79
2023/05/07 11:13:55;;;;;;;4.60;4.20;;;23.10;82.00;;;;;;6220807;28;88328;-78
2023/05/07 11:17:03;;;;;;;4.03;3.72;;;23.10;81.90;;;;;;6231598;28;89084;-76
2023/05/07 11:20:08;;;;;;;4.43;4.03;;;23.10;81.90;;;;;;6233093;28;89179;-80
2023/05/07 11:23:48;;;;;;;4.60;4.20;;;23.10;81.90;;;;;;6243043;27;90158;-79
2023/05/07 11:26:51;;;;;;;4.78;4.38;;;23.10;82.00;;;;;;6237414;27;89410;-79
2023/05/07 11:29:53;;;;;;;3.90;3.60;;;23.00;81.80;;;;;;6209110;28;89097;-76
2023/05/07 11:32:55;;;;;;;3.90;3.60;;;23.00;81.80;;;;;;6228762;28;89646;-80
2023/05/07 11:36:00;;;;;;;4.32;3.92;;;23.10;82.00;;;;;;6237752;28;89379;-79
2023/05/07 11:39:02;;;;;;;4.00;3.65;;;23.10;81.90;;;;;;6220915;27;89042;-78
2023/05/07 11:42:04;;;;;;;3.90;3.60;;;23.10;82.00;;;;;;6235611;27;89382;-80
2023/05/07 11:45:07;;;;;;;3.90;3.60;;;23.10;82.00;;;;;;6244848;27;88238;-79
2023/05/07 11:48:09;;;;;;;5.38;4.32;;;23.10;82.00;;;;;;6212272;28;89242;-77
2023/05/07 11:51:13;;;;;;;4.22;3.85;;;23.10;81.90;;;;;;6220025;28;89573;-80
2023/05/07 11:54:17;;;;;;;4.40;4.00;;;23.10;81.90;;;;;;6241880;28;89859;-78
2023/05/07 11:57:19;;;;;;;4.00;3.70;;;23.10;81.90;;;;;;6250970;28;89501;-80
2023/05/07 12:00:21;;;;;;;4.35;3.80;;;23.10;81.80;;;;;;6220921;28;89277;-78
2023/05/07 12:03:23;;;;;;;4.13;3.83;;;23.10;81.80;;;;;;6219996;28;89072;-80
2023/05/07 12:06:26;;;;;;;4.13;3.75;;;23.10;81.90;;;;;;6223007;28;89063;-79
2023/05/07 12:09:29;;;;;;;3.90;3.60;;;23.10;81.90;;;;;;6218440;28;89126;-78
2023/05/07 12:12:31;;;;;;;3.90;3.60;;;23.10;81.80;;;;;;6221866;27;88120;-79
2023/05/07 12:15:36;;;;;;;4.20;3.80;;;23.10;81.80;;;;;;6232077;27;88481;-78
2023/05/07 12:18:38;;;;;;;3.90;3.60;;;23.10;81.80;;;;;;6219335;28;89049;-79
2023/05/07 12:21:42;;;;;;;4.20;3.80;;;23.10;81.80;;;;;;6241985;28;89070;-79
2023/05/07 12:24:48;;;;;;;4.05;3.70;;;23.10;81.80;;;;;;6221915;27;90030;-79
2023/05/07 12:27:53;;;;;;;3.97;3.58;;;23.10;81.70;;;;;;6221429;28;89089;-79
2023/05/07 12:30:56;;;;;;;4.00;3.70;;;23.10;81.70;;;;;;6207293;28;89064;-78
2023/05/07 12:33:58;;;;;;;3.70;3.40;;;23.10;81.70;;;;;;6216705;27;89119;-80
2023/05/07 12:37:04;;;;;;;3.72;3.42;;;23.10;81.60;;;;;;6228189;27;87994;-79
2023/05/07 12:40:07;;;;;;;4.07;3.70;;;23.10;81.60;;;;;;6239281;27;89107;-78
2023/05/07 12:43:15;;;;;;;3.92;3.63;;;23.10;81.70;;;;;;6218292;28;89381;-79
2023/05/07 12:46:18;;;;;;;3.95;3.65;;;23.10;81.60;;;;;;6244937;28;86838;-79
2023/05/07 12:49:20;;;;;;;3.65;3.35;;;23.10;81.60;;;;;;6242185;27;89053;-80
2023/05/07 12:52:24;;;;;;;3.80;3.50;;;23.10;81.60;;;;;;6210252;28;89551;-79
2023/05/07 12:55:26;;;;;;;3.95;3.65;;;23.10;81.60;;;;;;6223245;28;90095;-80
2023/05/07 12:58:29;;;;;;;3.60;3.30;;;23.10;81.50;;;;;;6227401;27;89029;-79
2023/05/07 13:01:32;;;;;;;3.72;3.42;;;23.20;81.70;;;;;;6208587;28;89123;-78
2023/05/07 13:04:34;;;;;;;3.85;3.50;;;23.10;81.60;;;;;;6217321;28;88607;-79
2023/05/07 13:07:37;;;;;;;3.88;3.58;;;23.10;81.60;;;;;;6207206;28;89042;-78
2023/05/07 13:10:39;;;;;;;3.33;3.10;;;23.10;81.60;;;;;;6242312;28;88946;-79
2023/05/07 13:13:42;;;;;;;3.55;3.25;;;23.10;81.60;;;;;;6219623;28;89087;-77
2023/05/07 13:16:44;;;;;;;3.35;3.15;;;23.20;81.60;;;;;;6230134;28;88321;-78
2023/05/07 13:19:46;;;;;;;3.53;3.22;;;23.10;81.60;;;;;;6224352;27;88287;-79
2023/05/07 13:22:49;;;;;;;3.72;3.42;;;23.10;81.60;;;;;;6213315;28;87936;-77
2023/05/07 13:25:52;;;;;;;4.10;3.70;;;23.10;81.60;;;;;;6236765;28;90015;-79
2023/05/07 13:28:54;;;;;;;3.60;3.30;;;23.10;81.50;;;;;;6226900;28;89024;-78
2023/05/07 13:31:57;;;;;;;3.70;3.40;;;23.10;81.60;;;;;;6222829;28;89217;-79
2023/05/07 13:34:59;;;;;;;3.70;3.40;;;23.10;81.50;;;;;;6229245;28;89173;-80
2023/05/07 13:38:02;;;;;;;3.75;3.45;;;23.20;81.50;;;;;;6207313;28;89475;-79
2023/05/07 13:41:04;;;;;;;3.80;3.50;;;23.10;81.50;;;;;;6207833;28;87902;-79
2023/05/07 13:44:06;;;;;;;3.40;3.10;;;23.10;81.40;;;;;;6216465;28;89373;-79
2023/05/07 13:47:08;;;;;;;3.90;3.50;;;23.10;81.50;;;;;;6226121;28;88293;-80
2023/05/07 13:50:13;;;;;;;3.70;3.40;;;23.20;81.50;;;;;;6239620;27;89338;-80
2023/05/07 13:53:18;;;;;;;3.50;3.20;;;23.10;81.50;;;;;;6206842;28;89057;-78
2023/05/07 13:56:20;;;;;;;3.65;3.35;;;23.10;81.40;;;;;;6205869;28;90173;-79
2023/05/07 13:59:22;;;;;;;3.70;3.40;;;23.10;81.40;;;;;;6223842;28;89209;-80
2023/05/07 14:02:23;;;;;;;3.78;3.47;;;23.10;81.50;;;;;;6241355;27;89146;-80
2023/05/07 14:05:27;;;;;;;3.80;3.40;;;23.20;81.50;;;;;;6216943;28;89078;-80
2023/05/07 14:08:31;;;;;;;3.70;3.40;;;23.20;81.40;;;;;;6221114;28;88764;-79
2023/05/07 14:11:32;;;;;;;3.63;3.33;;;23.20;81.30;;;;;;6232375;28;88518;-80
2023/05/07 14:14:34;;;;;;;3.95;3.25;;;23.20;81.40;;;;;;6242226;27;89312;-79
2023/05/07 14:17:36;;;;;;;3.65;3.35;;;23.20;81.40;;;;;;6238830;28;88316;-80
2023/05/07 14:20:38;;;;;;;3.92;3.45;;;23.20;81.30;;;;;;6243391;28;88844;-80
2023/05/07 14:23:42;;;;;;;4.38;3.97;;;23.20;81.30;;;;;;6232431;28;89044;-80
2023/05/07 14:26:45;;;;;;;3.70;3.40;;;23.10;81.30;;;;;;6224973;28;90328;-82
2023/05/07 14:29:50;;;;;;;3.83;3.33;;;23.10;81.30;;;;;;6233860;28;90441;-79
2023/05/07 14:32:52;;;;;;;3.47;3.17;;;23.10;81.30;;;;;;6234545;28;89204;-80
2023/05/07 14:35:54;;;;;;;3.80;3.50;;;23.20;81.30;;;;;;6240773;27;89479;-81
2023/05/07 14:38:59;;;;;;;3.97;3.45;;;23.10;81.30;;;;;;6217077;27;88317;-80
2023/05/07 14:42:01;;;;;;;4.05;3.65;;;23.20;81.30;;;;;;6214796;28;89402;-81
2023/05/07 14:45:03;;;;;;;3.88;3.50;;;23.20;81.30;;;;;;6216576;28;89118;-78
2023/05/07 14:48:06;;;;;;;4.25;3.55;;;23.20;81.30;;;;;;6211503;28;88317;-79
2023/05/07 14:51:08;;;;;;;4.47;3.80;;;23.10;81.20;;;;;;6208340;28;88930;-81
2023/05/07 14:54:11;;;;;;;3.70;3.30;;;23.20;81.30;;;;;;6221264;28;89130;-80
2023/05/07 14:57:18;;;;;;;3.85;3.45;;;23.20;81.30;;;;;;6209626;28;90325;-81
2023/05/07 15:00:20;;;;;;;3.83;3.42;;;23.20;81.30;;;;;;6220979;28;89086;-80
2023/05/07 15:03:22;;;;;;;3.75;3.45;;;23.20;81.20;;;;;;6229060;28;89134;-79
2023/05/07 15:06:25;;;;;;;3.60;3.30;;;23.10;81.10;;;;;;6233373;28;89050;-81
2023/05/07 15:09:28;;;;;;;4.70;3.85;;;23.10;81.10;;;;;;6243312;28;87807;-79
2023/05/07 15:12:30;;;;;;;3.58;3.28;;;23.20;81.10;;;;;;6214941;28;87944;-81
2023/05/07 15:15:32;;;;;;;3.47;3.17;;;23.20;81.20;;;;;;6218396;28;89346;-80
2023/05/07 15:18:34;;;;;;;4.25;3.40;;;23.20;81.10;;;;;;6214265;28;88300;-81
2023/05/07 15:21:36;;;;;;;3.92;3.53;;;23.20;81.10;;;;;;6229268;28;89060;-81
2023/05/07 15:24:39;;;;;;;3.60;3.30;;;23.20;81.10;;;;;;6214434;28;89562;-78
2023/05/07 15:27:41;;;;;;;3.47;3.15;;;23.20;81.10;;;;;;6226688;28;90409;-80
2023/05/07 15:30:43;;;;;;;3.40;3.10;;;23.20;81.10;;;;;;6229727;28;89053;-78
2023/05/07 15:33:47;;;;;;;3.85;3.45;;;23.20;81.10;;;;;;6239139;27;89152;-78
2023/05/07 15:36:49;;;;;;;3.60;3.30;;;23.20;81.10;;;;;;6238006;28;90315;-79
2023/05/07 15:39:52;;;;;;;3.78;3.47;;;23.20;81.10;;;;;;6229061;28;91138;-78
2023/05/07 15:42:56;;;;;;;4.72;3.50;;;23.20;81.10;;;;;;6241459;28;89077;-79
2023/05/07 15:45:59;;;;;;;3.65;3.35;;;23.10;81.10;;;;;;6231709;27;89409;-79
2023/05/07 15:49:04;;;;;;;3.58;3.28;;;23.20;81.10;;;;;;6242852;28;87207;-79